Time;durP1;ratioP1;P1;durP2;ratioP2;P2;SDS_P1;SDS_P2;PMS_P1;PMS_P2;Temp;Humidity;BMP_temperature;BMP_pressure;BME280_temperature;BME280_humidity;BME280_pressure;Samples;Min_cycle;Max_cycle;Signal;HPM_P1;HPM_P2
2022/02/03 00:00:55;;;;;;;32.40;17.70;;;;;;;0.33;88.83;98428.33;1696641;84;21546;-73
2022/02/03 00:02:59;;;;;;;40.00;18.73;;;;;;;0.32;88.79;98432.14;1682479;84;20998;-72
2022/02/03 00:05:24;;;;;;;37.08;19.67;;;;;;;0.34;88.84;98438.64;1694602;84;21386;-72
2022/02/03 00:08:09;;;;;;;41.37;19.75;;;;;;;0.35;88.83;98445.67;1696082;84;21459;-73
2022/02/03 00:10:42;;;;;;;34.38;17.85;;;;;;;0.37;88.79;98444.85;1695157;84;21518;-74
2022/02/03 00:24:40;;;;;;;54.18;22.58;;;;;;;0.37;88.59;98443.50;1691144;83;20963;-71
2022/02/03 00:27:18;;;;;;;40.63;20.23;;;;;;;0.36;88.66;98440.50;1696203;84;20985;-73
2022/02/03 00:30:04;;;;;;;41.70;19.23;;;;;;;0.36;88.63;98441.86;1696115;84;21054;-72
2022/02/03 00:48:45;;;;;;;43.78;20.95;;;;;;;0.33;88.76;98437.00;1696561;84;21624;-71
2022/02/03 00:51:11;;;;;;;44.03;21.85;;;;;;;0.32;88.83;98442.98;1696498;84;20962;-72
2022/02/03 00:53:38;;;;;;;41.98;19.87;;;;;;;0.33;88.85;98437.00;1696518;84;20994;-72
2022/02/03 00:56:08;;;;;;;41.28;21.42;;;;;;;0.33;88.83;98430.22;1680697;84;20938;-72
2022/02/03 00:58:51;;;;;;;42.75;21.62;;;;;;;0.34;88.89;98431.30;1696161;84;21038;-73
2022/02/03 01:01:19;;;;;;;39.67;21.07;;;;;;;0.36;88.96;98433.73;1691570;84;21491;-73
2022/02/03 01:03:51;;;;;;;44.88;20.88;;;;;;;0.38;88.98;98428.84;1696583;84;20934;-72
2022/02/03 01:06:20;;;;;;;39.23;20.97;;;;;;;0.39;88.96;98435.91;1696891;84;20955;-72
2022/02/03 01:08:48;;;;;;;45.83;22.05;;;;;;;0.40;88.91;98440.22;1696578;84;20954;-74
2022/02/03 01:11:23;;;;;;;44.70;21.87;;;;;;;0.40;88.88;98442.94;1680619;84;20994;-74
2022/02/03 01:14:01;;;;;;;44.10;22.55;;;;;;;0.39;88.86;98433.20;1696133;84;21597;-74
2022/02/03 01:16:41;;;;;;;48.92;22.02;;;;;;;0.39;88.92;98428.31;1695727;84;21050;-71
2022/02/03 01:19:27;;;;;;;47.85;22.07;;;;;;;0.39;88.99;98439.15;1694641;84;22244;-72
2022/02/03 01:45:54;;;;;;;45.90;22.50;;;;;;;0.38;89.27;98451.88;1696667;84;20954;-73
2022/02/03 01:53:48;;;;;;;44.25;20.80;;;;;;;0.39;89.48;98455.41;1672293;84;21556;-71
2022/02/03 01:56:21;;;;;;;42.03;21.17;;;;;;;0.41;89.54;98458.09;1668611;86;20941;-71
2022/02/03 01:58:50;;;;;;;;;;;;;;;0.40;89.51;98459.20;1671282;85;20962;-73
2022/02/03 02:01:27;;;;;;;41.00;19.67;;;;;;;0.39;89.56;98458.12;1668317;86;20087;-73
2022/02/03 02:04:32;;;;;;;49.25;24.40;;;;;;;0.38;89.67;98451.88;1668671;85;21037;-72
2022/02/03 02:07:39;;;;;;;42.15;21.12;;;;;;;0.39;89.78;98452.17;1668507;86;21575;-73
2022/02/03 02:10:54;;;;;;;43.52;21.17;;;;;;;0.40;89.78;98451.06;1668336;86;21629;-70
2022/02/03 02:13:55;;;;;;;51.35;22.67;;;;;;;0.41;89.90;98455.39;1666903;85;20871;-72
2022/02/03 02:16:31;;;;;;;43.02;22.05;;;;;;;0.43;90.00;98453.22;1666125;85;21427;-72
2022/02/03 02:19:07;;;;;;;41.50;21.07;;;;;;;0.45;90.06;98456.47;1666559;85;21597;-73
2022/02/03 02:38:53;;;;;;;42.53;23.02;;;;;;;0.46;90.53;98451.86;1668487;86;20994;-72
2022/02/03 02:45:00;;;;;;;48.25;23.15;;;;;;;0.47;90.62;98447.52;1668501;86;21554;-72
2022/02/03 02:48:05;;;;;;;39.67;22.17;;;;;;;0.47;90.52;98448.88;1668770;86;21097;-70
2022/02/03 02:50:41;;;;;;;44.10;23.75;;;;;;;0.45;90.55;98448.33;1668286;84;21124;-72
2022/02/03 02:53:26;;;;;;;47.05;23.85;;;;;;;0.46;90.66;98444.52;1666999;85;20942;-72
2022/02/03 02:56:13;;;;;;;38.55;21.12;;;;;;;0.48;90.74;98441.53;1666484;85;20910;-73
2022/02/03 02:58:48;;;;;;;44.95;22.60;;;;;;;0.47;90.83;98443.45;1666572;85;21005;-72
2022/02/03 03:34:20;;;;;;;39.63;20.95;;;;;;;0.39;91.99;98473.85;1681910;85;21005;-72
2022/02/03 03:36:39;;;;;;;39.35;19.20;;;;;;;0.39;91.98;98484.70;1680431;85;20974;-74
2022/02/03 03:39:05;;;;;;;37.50;19.05;;;;;;;0.39;91.93;98481.16;1682546;85;20938;-72
2022/02/03 03:41:34;;;;;;;53.02;24.35;;;;;;;0.39;91.92;98486.05;1682274;85;21514;-72
2022/02/03 03:44:07;;;;;;;56.25;25.35;;;;;;;0.39;91.92;98486.05;1682489;85;21139;-73
2022/02/03 03:46:39;;;;;;;52.43;25.15;;;;;;;0.39;91.84;98485.23;1682322;85;20949;-72
2022/02/03 03:49:11;;;;;;;56.83;25.92;;;;;;;0.38;91.89;98484.41;1682614;84;21609;-72
2022/02/03 03:51:51;;;;;;;;;;;;;;;0.39;92.01;98487.41;1684969;85;21422;-72
2022/02/03 03:54:37;;;;;;;53.48;25.40;;;;;;;0.41;92.16;98489.27;1681632;85;20155;-72
2022/02/03 04:00:13;;;;;;;60.95;28.57;;;;;;;0.44;92.30;98490.63;1681486;85;20898;-73
2022/02/03 04:32:33;;;;;;;33.30;18.17;;;;;;;0.35;93.07;98510.72;1682573;85;21011;-73
2022/02/03 04:54:49;;;;;;;37.90;18.32;;;;;;;0.34;93.32;98541.06;1682452;85;21162;-73
2022/02/03 05:06:57;;;;;;;35.00;18.48;;;;;;;0.40;93.49;98555.96;1629179;88;21063;-71
2022/02/03 05:12:35;;;;;;;44.18;18.35;;;;;;;0.38;93.32;98556.23;1682363;85;20971;-71
2022/02/03 05:15:33;;;;;;;39.15;18.87;;;;;;;0.36;93.31;98558.41;1671945;85;21029;-73
2022/02/03 05:24:38;;;;;;;46.05;21.50;;;;;;;0.32;93.55;98575.79;1682374;85;21162;-72
2022/02/03 05:32:05;;;;;;;47.35;21.82;;;;;;;0.32;93.58;98575.79;1678251;85;28269;-71
2022/02/03 05:42:46;;;;;;;36.58;19.73;;;;;;;0.27;94.01;98604.25;1627945;88;20958;-72
2022/02/03 06:02:13;;;;;;;48.73;24.10;;;;;;;0.36;94.65;98616.68;1663825;86;21021;-72
2022/02/03 06:15:25;;;;;;;42.08;23.02;;;;;;;0.45;94.92;98629.96;1663828;85;21490;-72
2022/02/03 06:23:56;;;;;;;59.83;26.30;;;;;;;0.47;94.86;98642.70;1636478;87;21003;-71
2022/02/03 06:29:12;;;;;;;37.05;21.93;;;;;;;0.48;95.01;98640.25;1627970;88;20986;-72
2022/02/03 06:31:44;;;;;;;45.12;22.87;;;;;;;0.52;95.09;98643.77;1663775;86;21009;-73
2022/02/03 06:34:11;;;;;;;54.13;27.42;;;;;;;0.53;95.14;98642.69;1629175;88;21817;-72
2022/02/03 06:36:38;;;;;;;48.02;23.92;;;;;;;0.56;95.21;98646.20;1657059;85;21444;-71
2022/02/03 06:39:19;;;;;;;49.30;26.65;;;;;;;0.59;95.20;98651.90;1682433;85;20993;-72
2022/02/03 06:41:53;;;;;;;47.60;24.20;;;;;;;0.59;95.24;98654.61;1682425;85;20938;-73
2022/02/03 06:44:30;;;;;;;45.28;24.00;;;;;;;0.61;95.24;98652.98;1682386;85;21042;-72
2022/02/03 06:46:55;;;;;;;50.95;22.85;;;;;;;0.63;95.29;98652.16;1681695;85;21116;-71
2022/02/03 06:49:44;;;;;;;38.45;20.72;;;;;;;0.64;95.31;98655.67;1682262;84;21495;-73
2022/02/03 06:52:17;;;;;;;38.78;19.70;;;;;;;0.65;95.27;98654.03;1680040;85;21372;-71
2022/02/03 06:55:09;;;;;;;41.25;22.00;;;;;;;0.66;95.31;98659.74;1681786;85;21550;-73
2022/02/03 06:57:39;;;;;;;43.25;22.73;;;;;;;0.67;95.38;98660.53;1681125;85;20922;-72
2022/02/03 07:00:14;;;;;;;41.68;22.60;;;;;;;0.72;95.50;98671.38;1681858;85;21772;-70
2022/02/03 07:02:40;;;;;;;51.33;26.30;;;;;;;0.73;95.56;98673.80;1681062;85;21065;-72
2022/02/03 07:05:05;;;;;;;44.27;22.73;;;;;;;0.78;95.60;98680.31;1681813;85;21066;-72
2022/02/03 07:07:38;;;;;;;34.90;20.57;;;;;;;0.81;95.61;98681.94;1682484;85;21458;-73
2022/02/03 07:10:06;;;;;;;33.28;18.50;;;;;;;0.84;95.63;98679.20;1682403;85;20954;-73
2022/02/03 07:12:34;;;;;;;29.02;16.73;;;;;;;0.87;95.66;98685.44;1682546;85;21216;-73
2022/02/03 07:15:03;;;;;;;26.75;16.62;;;;;;;0.92;95.61;98688.13;1682531;85;20886;-72
2022/02/03 07:17:33;;;;;;;28.67;16.52;;;;;;;0.96;95.57;98691.92;1682476;85;21550;-74
2022/02/03 07:20:05;;;;;;;32.42;16.15;;;;;;;1.01;95.53;98695.16;1682394;85;20985;-74
2022/02/03 07:22:34;;;;;;;34.65;18.02;;;;;;;1.05;95.45;98690.00;1682823;85;21074;-73
2022/02/03 07:25:02;;;;;;;34.58;16.77;;;;;;;1.10;95.33;98703.55;1682322;85;21084;-73
2022/02/03 07:27:30;;;;;;;37.10;18.57;;;;;;;1.13;95.20;98708.95;1682595;85;20974;-73
2022/02/03 07:29:58;;;;;;;30.35;17.37;;;;;;;1.15;95.10;98709.50;1682235;85;20976;-73
2022/02/03 07:32:24;;;;;;;29.98;16.62;;;;;;;1.15;94.94;98711.67;1682342;85;21050;-70
2022/02/03 07:34:53;;;;;;;28.85;17.25;;;;;;;1.16;94.84;98713.28;1668862;84;21564;-71
2022/02/03 07:37:23;;;;;;;28.27;15.32;;;;;;;1.17;94.81;98707.33;1663912;86;21378;-72
2022/02/03 07:39:50;;;;;;;32.03;16.82;;;;;;;1.18;94.81;98712.47;1663590;86;21415;-72
2022/02/03 07:42:16;;;;;;;29.20;17.70;;;;;;;1.21;94.79;98715.98;1663903;86;20978;-71
2022/02/03 07:44:48;;;;;;;36.65;17.67;;;;;;;1.20;94.84;98718.44;1650258;86;21069;-72
2022/02/03 07:47:15;;;;;;;29.52;16.10;;;;;;;1.22;94.89;98726.30;1663911;85;20985;-73
2022/02/03 07:49:44;;;;;;;25.20;15.10;;;;;;;1.21;94.83;98724.12;1663837;84;21649;-73
2022/02/03 07:52:12;;;;;;;28.55;16.48;;;;;;;1.25;94.89;98726.28;1649934;86;21037;-73
2022/02/03 07:54:40;;;;;;;25.80;15.50;;;;;;;1.32;94.51;98739.84;1650285;86;20967;-72
2022/02/03 07:57:08;;;;;;;26.27;16.42;;;;;;;1.32;94.38;98735.77;1663709;85;20871;-72
2022/02/03 07:59:35;;;;;;;28.52;16.42;;;;;;;1.28;94.47;98736.61;1663944;86;20902;-72
2022/02/03 08:02:01;;;;;;;24.92;15.10;;;;;;;1.24;94.54;98735.52;1664042;86;21045;-73
2022/02/03 08:04:32;;;;;;;21.95;14.93;;;;;;;1.18;94.62;98736.90;1663784;85;20942;-73
2022/02/03 08:06:58;;;;;;;23.38;14.78;;;;;;;1.13;94.79;98740.16;1664053;85;20958;-73
2022/02/03 08:12:01;;;;;;;24.85;14.85;;;;;;;1.05;95.28;98746.45;1664018;86;21513;-73
2022/02/03 08:14:35;;;;;;;25.95;16.40;;;;;;;1.04;95.47;98750.23;1650262;86;21163;-72
2022/02/03 08:17:08;;;;;;;29.65;16.50;;;;;;;1.02;95.66;98751.61;1663698;85;20886;-72
2022/02/03 08:19:46;;;;;;;24.50;15.75;;;;;;;1.00;95.90;98752.42;1664162;85;21045;-74
2022/02/03 08:22:11;;;;;;;27.02;14.75;;;;;;;1.00;96.07;98757.84;1662230;85;21510;-74
2022/02/03 08:24:44;;;;;;;26.57;16.20;;;;;;;0.98;96.21;98759.48;1663512;85;21001;-73
2022/02/03 08:27:33;;;;;;;23.22;14.25;;;;;;;0.95;96.25;98755.97;1663184;85;20946;-74
2022/02/03 08:30:04;;;;;;;29.52;17.20;;;;;;;0.95;96.42;98760.86;1661186;86;20922;-71
2022/02/03 08:32:16;;;;;;;26.93;14.20;;;;;;;0.93;96.56;98764.38;1662382;86;20931;-73
2022/02/03 08:37:22;;;;;;;19.75;10.43;;;;;;;0.90;100.00;98766.83;1663971;85;20974;-74
2022/02/03 08:39:58;;;;;;;18.40;9.10;;;;;;;0.88;100.00;98772.53;1664091;86;20964;-74
2022/02/03 08:42:22;;;;;;;13.28;7.78;;;;;;;0.79;100.00;98781.76;1663793;85;21001;-72
2022/02/03 08:44:49;;;;;;;8.75;6.45;;;;;;;0.66;100.00;98779.06;1663897;85;20898;-74
2022/02/03 08:47:17;;;;;;;14.58;9.13;;;;;;;0.66;100.00;98783.67;1664023;86;21542;-74
2022/02/03 08:49:48;;;;;;;10.70;7.25;;;;;;;0.65;100.00;98777.98;1664009;84;21010;-74
2022/02/03 08:52:23;;;;;;;13.55;8.53;;;;;;;0.67;100.00;98787.46;1664055;85;22184;-74
2022/02/03 08:54:55;;;;;;;9.35;6.47;;;;;;;0.72;100.00;98790.17;1662228;85;21478;-73
2022/02/03 08:57:19;;;;;;;10.03;6.53;;;;;;;0.77;100.00;98787.20;1648755;86;20981;-73
2022/02/03 09:00:09;;;;;;;16.95;8.68;;;;;;;0.75;100.00;98798.30;1663523;85;20894;-74
2022/02/03 09:34:34;;;;;;;8.93;6.72;;;;;;;0.47;100.00;98831.12;1732147;82;21127;-74
2022/02/03 09:38:32;;;;;;;18.17;11.38;;;;;;;0.50;100.00;98833.00;1732142;82;20991;-73
2022/02/03 09:41:05;;;;;;;18.62;10.58;;;;;;;0.50;100.00;98836.53;1728840;82;20935;-74
2022/02/03 09:54:39;;;;;;;12.88;7.42;;;;;;;0.38;100.00;98846.81;1726513;83;21488;-74
2022/02/03 09:59:35;;;;;;;14.90;9.55;;;;;;;0.32;100.00;98848.72;1726304;82;21098;-73
2022/02/03 10:02:06;;;;;;;18.00;10.53;;;;;;;0.33;100.00;98861.17;1725030;83;20984;-74
2022/02/03 10:04:50;;;;;;;13.98;9.30;;;;;;;0.33;100.00;98864.71;1723352;83;21087;-74
2022/02/03 10:07:30;;;;;;;19.92;11.05;;;;;;;0.26;100.00;98864.70;1726646;83;21493;-74
2022/02/03 10:09:59;;;;;;;15.90;10.00;;;;;;;0.26;100.00;98866.06;1700418;83;20988;-72
2022/02/03 10:12:38;;;;;;;15.48;10.35;;;;;;;0.21;100.00;98873.61;1727063;83;21724;-72
2022/02/03 10:15:07;;;;;;;24.27;12.07;;;;;;;0.16;100.00;98878.48;1725936;82;20944;-74
2022/02/03 10:17:44;;;;;;;15.88;10.10;;;;;;;0.15;100.00;98881.47;1722880;83;20913;-73
2022/02/03 10:20:17;;;;;;;15.03;9.83;;;;;;;0.14;100.00;98887.42;1711466;83;21024;-74
2022/02/03 10:22:49;;;;;;;;;;;;;;;0.15;100.00;98879.58;1690546;83;21495;-73
2022/02/03 10:25:28;;;;;;;15.38;9.60;;;;;;;0.04;100.00;98884.14;1711461;83;21227;-75
2022/02/03 10:28:08;;;;;;;16.15;9.33;;;;;;;-0.06;100.00;98892.22;1711720;83;21449;-72
2022/02/03 10:30:48;;;;;;;14.13;9.23;;;;;;;-0.09;100.00;98892.76;1711641;83;20983;-72
2022/02/03 10:33:16;;;;;;;16.48;10.50;;;;;;;-0.07;100.00;98896.02;1711029;83;20952;-74
2022/02/03 10:41:23;;;;;;;15.10;9.88;;;;;;;-0.02;100.00;98896.05;1711321;83;20892;-72
2022/02/03 10:44:08;;;;;;;16.07;10.38;;;;;;;0.02;100.00;98901.75;1709343;83;21004;-75
2022/02/03 10:46:45;;;;;;;12.35;8.20;;;;;;;-0.04;100.00;98909.86;1708041;83;21027;-74
2022/02/03 11:00:13;;;;;;;17.52;9.53;;;;;;;-0.16;96.50;98917.38;1711380;83;21540;-73
2022/02/03 11:08:13;;;;;;;12.75;9.48;;;;;;;-0.22;98.71;98930.62;1711338;83;20977;-73
2022/02/03 11:10:39;;;;;;;13.98;8.95;;;;;;;-0.33;100.00;98931.92;1710388;83;33500;-73
2022/02/03 11:13:03;;;;;;;14.03;8.55;;;;;;;-0.33;100.00;98929.74;1711140;83;20928;-72
2022/02/03 11:15:33;;;;;;;16.52;9.28;;;;;;;-0.41;100.00;98942.69;1711436;83;20996;-73
2022/02/03 11:18:05;;;;;;;15.58;9.28;;;;;;;-0.46;100.00;98935.88;1683239;84;21090;-73
2022/02/03 11:20:35;;;;;;;19.20;10.30;;;;;;;-0.47;100.00;98948.33;1696880;84;21016;-72
2022/02/03 11:34:17;;;;;;;14.25;8.43;;;;;;;-0.08;100.00;98956.15;1736731;82;20930;-74
2022/02/03 11:42:22;;;;;;;20.23;11.12;;;;;;;0.02;100.00;98955.94;1736782;82;20998;-75
2022/02/03 11:59:17;;;;;;;18.60;10.95;;;;;;;-0.38;100.00;98969.27;1722994;82;21184;-74
2022/02/03 12:07:16;;;;;;;19.30;11.53;;;;;;;-0.51;100.00;98966.98;1736543;82;21025;-73
2022/02/03 12:20:59;;;;;;;18.77;12.47;;;;;;;-0.58;100.00;98996.98;1730093;83;20978;-74
2022/02/03 12:26:35;;;;;;;23.47;12.50;;;;;;;-0.64;100.00;98999.38;1730519;83;21486;-74
2022/02/03 12:29:04;;;;;;;23.73;13.48;;;;;;;-0.60;100.00;99015.92;1729124;83;21450;-74
2022/02/03 12:40:03;;;;;;;27.10;15.13;;;;;;;-0.72;100.00;99030.44;1730251;83;21029;-74
2022/02/03 12:45:18;;;;;;;28.57;15.25;;;;;;;-0.77;100.00;99037.95;1708083;83;20985;-74
2022/02/03 12:47:49;;;;;;;23.40;13.72;;;;;;;-0.79;100.00;99040.66;1730513;83;21538;-74
2022/02/03 12:50:32;;;;;;;23.42;14.30;;;;;;;-0.77;100.00;99050.69;1730512;83;20921;-73
2022/02/03 12:52:59;;;;;;;18.45;11.88;;;;;;;-0.81;100.00;99042.27;1730489;83;21406;-74
2022/02/03 12:55:30;;;;;;;22.42;13.13;;;;;;;-0.82;100.00;99042.52;1730173;82;20941;-73
2022/02/03 12:58:07;;;;;;;21.17;12.30;;;;;;;-0.85;100.00;99037.07;1729978;83;20913;-75
2022/02/03 13:00:44;;;;;;;25.00;12.80;;;;;;;-0.85;100.00;99047.89;1730456;83;21478;-73
2022/02/03 13:03:10;;;;;;;23.10;12.88;;;;;;;-0.87;100.00;99051.41;1729369;83;20905;-73
2022/02/03 13:05:40;;;;;;;22.35;13.18;;;;;;;-0.83;100.00;99051.69;1730306;83;21502;-73
2022/02/03 13:08:11;;;;;;;22.15;12.37;;;;;;;-0.82;100.00;99061.46;1730611;83;20953;-74
2022/02/03 13:10:40;;;;;;;19.15;12.45;;;;;;;-0.84;100.00;99051.42;1730806;83;21443;-74
2022/02/03 13:13:18;;;;;;;20.05;12.50;;;;;;;-0.83;100.00;99056.58;1730309;83;20990;-72
2022/02/03 13:15:45;;;;;;;21.12;12.75;;;;;;;-0.82;100.00;99061.46;1730096;83;20882;-73
2022/02/03 13:18:22;;;;;;;23.70;12.53;;;;;;;-0.86;100.00;99059.27;1729895;82;22104;-73
2022/02/03 13:20:49;;;;;;;23.32;12.28;;;;;;;-0.82;100.00;99064.17;1729154;83;20902;-72
2022/02/03 13:23:16;;;;;;;21.62;11.83;;;;;;;-0.82;100.00;99069.02;1729453;83;20850;-74
2022/02/03 13:25:56;;;;;;;18.32;10.80;;;;;;;-0.82;100.00;99072.28;1730201;83;20953;-72
2022/02/03 13:28:29;;;;;;;25.68;13.38;;;;;;;-0.82;100.00;99081.75;1729481;83;20997;-71
2022/02/03 13:30:52;;;;;;;24.10;13.20;;;;;;;-0.88;100.00;99076.29;1728470;83;21431;-74
2022/02/03 13:33:22;;;;;;;27.27;14.00;;;;;;;-0.91;100.00;99093.03;1729646;83;20965;-74
2022/02/03 13:35:58;;;;;;;18.77;10.98;;;;;;;-0.96;100.00;99084.86;1730352;83;21434;-73
2022/02/03 13:38:58;;;;;;;27.02;12.88;;;;;;;-1.00;100.00;99083.20;1730131;83;21033;-73
2022/02/03 13:41:17;;;;;;;21.90;11.35;;;;;;;-1.04;100.00;99093.44;1719141;83;20922;-71
2022/02/03 13:43:43;;;;;;;21.97;12.73;;;;;;;-1.12;100.00;99083.33;1730125;83;21558;-73
2022/02/03 13:46:10;;;;;;;22.85;11.83;;;;;;;-1.16;100.00;99097.06;1730535;82;21392;-72
2022/02/03 13:48:39;;;;;;;23.90;13.25;;;;;;;-1.16;100.00;99089.52;1730145;82;21033;-74
2022/02/03 13:51:10;;;;;;;19.07;11.73;;;;;;;-1.20;100.00;99104.06;1730191;83;21473;-72
2022/02/03 13:53:45;;;;;;;20.05;10.80;;;;;;;-1.23;100.00;99101.31;1730367;83;20973;-74
2022/02/03 14:21:23;;;;;;;20.70;10.53;;;;;;;-1.74;100.00;99134.70;1707899;84;20901;-72
2022/02/03 14:29:24;;;;;;;17.23;8.98;;;;;;;-1.76;100.00;99145.48;1746319;82;20885;-73
2022/02/03 14:32:05;;;;;;;19.05;12.15;;;;;;;-1.77;100.00;99155.47;1707917;84;20925;-73
2022/02/03 14:34:33;;;;;;;19.92;11.28;;;;;;;-1.79;100.00;99149.48;1745553;81;21001;-73
2022/02/03 14:37:16;;;;;;;20.02;10.75;;;;;;;-1.75;100.00;99147.94;1746963;82;21461;-72
2022/02/03 14:42:11;;;;;;;23.00;12.03;;;;;;;-1.75;100.00;99156.56;1746111;82;20909;-74
2022/02/03 14:44:40;;;;;;;23.10;13.20;;;;;;;-1.75;100.00;99165.50;1746232;82;20936;-74
2022/02/03 14:47:10;;;;;;;22.90;12.25;;;;;;;-1.75;100.00;99174.12;1746495;82;21472;-71
2022/02/03 14:49:41;;;;;;;23.50;12.15;;;;;;;-1.75;100.00;99173.61;1746290;81;21100;-73
2022/02/03 15:00:27;;;;;;;29.48;15.30;;;;;;;-1.76;100.00;99206.28;1746329;82;21516;-74
2022/02/03 15:02:52;;;;;;;28.65;13.58;;;;;;;-1.78;100.00;99206.52;1746346;80;21080;-73
2022/02/03 15:05:32;;;;;;;32.93;16.55;;;;;;;-1.77;100.00;99208.15;1746146;81;20866;-74
2022/02/03 15:07:59;;;;;;;30.45;15.60;;;;;;;-1.76;100.00;99205.75;1746357;80;20949;-74
2022/02/03 15:10:41;;;;;;;35.80;17.12;;;;;;;-1.77;100.00;99213.55;1746136;82;21019;-74
2022/02/03 15:15:30;;;;;;;27.93;14.38;;;;;;;-1.84;100.00;99220.47;1746091;82;21114;-73
2022/02/03 15:17:58;;;;;;;31.02;15.78;;;;;;;-1.88;100.00;99223.39;1746235;82;21027;-73
2022/02/03 15:20:24;;;;;;;29.52;14.50;;;;;;;-1.90;100.00;99220.62;1746015;82;20921;-71
2022/02/03 15:22:52;;;;;;;31.57;16.45;;;;;;;-1.92;100.00;99224.92;1727168;82;21520;-73
2022/02/03 15:25:20;;;;;;;30.82;15.98;;;;;;;-1.92;100.00;99232.20;1746601;82;20888;-74
2022/02/03 15:27:47;;;;;;;33.42;18.00;;;;;;;-1.94;100.00;99229.75;1746576;82;21906;-72
2022/02/03 15:30:16;;;;;;;36.50;18.27;;;;;;;-1.95;100.00;99234.88;1746200;82;20989;-74
2022/02/03 15:32:45;;;;;;;33.78;17.20;;;;;;;-1.97;100.00;99235.12;1746346;82;20889;-74
2022/02/03 15:35:22;;;;;;;26.30;14.00;;;;;;;-1.98;100.00;99234.81;1745869;82;21027;-73
2022/02/03 15:37:46;;;;;;;30.48;16.05;;;;;;;-2.01;100.00;99235.83;1745768;81;20993;-74
2022/02/03 15:40:19;;;;;;;27.77;13.62;;;;;;;-2.05;100.00;99233.34;1727624;82;21804;-72
2022/02/03 15:42:54;;;;;;;32.80;15.95;;;;;;;-2.07;100.00;99232.23;1745893;82;21004;-73
2022/02/03 15:45:16;;;;;;;24.45;12.58;;;;;;;-2.07;100.00;99236.29;1745408;80;21048;-74
2022/02/03 15:47:48;;;;;;;24.92;12.98;;;;;;;-2.12;100.00;99234.33;1746229;81;21048;-73
2022/02/03 16:04:02;;;;;;;20.08;9.53;;;;;;;-2.45;100.00;99280.39;1708275;84;20901;-74
2022/02/03 16:17:17;;;;;;;12.55;7.78;;;;;;;-2.63;100.00;99302.45;1611403;89;21004;-73
2022/02/03 16:19:54;;;;;;;11.97;6.67;;;;;;;-2.68;100.00;99306.39;1654113;86;21748;-74
2022/02/03 16:22:27;;;;;;;16.23;8.38;;;;;;;-2.73;100.00;99316.52;1728948;83;20980;-73
2022/02/03 16:25:00;;;;;;;15.40;7.25;;;;;;;-2.80;100.00;99321.25;1729513;83;21001;-74
2022/02/03 16:41:36;;;;;;;14.65;7.95;;;;;;;-3.04;100.00;99346.88;1730372;82;20982;-74
2022/02/03 16:54:34;;;;;;;14.93;7.55;;;;;;;-3.11;100.00;99348.85;1730273;82;20941;-74
2022/02/03 16:57:15;;;;;;;17.42;6.95;;;;;;;-3.10;100.00;99354.01;1705782;83;21060;-75
2022/02/03 16:59:49;;;;;;;12.82;7.10;;;;;;;-3.12;100.00;99353.96;1730159;83;21596;-75
2022/02/03 17:02:15;;;;;;;13.78;7.22;;;;;;;-3.18;100.00;99357.88;1727255;83;20930;-74
2022/02/03 17:04:47;;;;;;;15.58;8.23;;;;;;;-3.19;100.00;99367.00;1730796;83;21546;-73
2022/02/03 17:07:15;;;;;;;13.00;6.87;;;;;;;-3.20;100.00;99373.46;1730716;83;20985;-73
2022/02/03 17:09:43;;;;;;;13.98;7.58;;;;;;;-3.19;100.00;99372.95;1730505;83;21013;-73
2022/02/03 17:12:15;;;;;;;13.98;7.70;;;;;;;-3.18;100.00;99381.31;1730472;82;20961;-73
2022/02/03 17:14:44;;;;;;;12.55;7.25;;;;;;;-3.19;100.00;99387.22;1730250;82;20933;-72
2022/02/03 17:17:22;;;;;;;12.35;6.83;;;;;;;-3.23;100.00;99394.66;1730408;83;21089;-74
2022/02/03 17:19:51;;;;;;;16.42;7.30;;;;;;;-3.32;100.00;99383.39;1730510;82;20894;-74
2022/02/03 17:22:25;;;;;;;11.25;7.12;;;;;;;-3.38;100.00;99382.46;1730624;83;20914;-74
2022/02/03 17:25:05;;;;;;;17.85;8.90;;;;;;;-3.39;100.00;99382.66;1729840;82;21352;-74
2022/02/03 17:27:30;;;;;;;17.00;8.40;;;;;;;-3.39;100.00;99376.75;1724551;83;20890;-74
2022/02/03 18:08:31;;;;;;;11.18;4.53;;;;;;;-3.58;91.82;99386.77;1730191;83;20966;-74
2022/02/03 18:10:40;;;;;;;11.50;6.20;;;;;;;-3.59;92.55;99373.84;1726605;83;20973;-74
2022/02/03 18:32:34;;;;;;;11.15;6.35;;;;;;;-3.60;92.08;99398.33;1730450;83;22107;-73
2022/02/03 18:35:04;;;;;;;12.93;5.97;;;;;;;-3.62;87.64;99401.25;1727245;83;20996;-72
2022/02/03 18:50:59;;;;;;;11.60;5.03;;;;;;;-3.58;88.28;99406.98;1730713;83;20953;-72
2022/02/03 18:56:05;;;;;;;17.35;6.62;;;;;;;-3.56;88.75;99403.53;1668583;83;21049;-72
2022/02/03 18:58:48;;;;;;;12.60;5.97;;;;;;;-3.56;87.71;99402.19;1728128;83;21124;-73
2022/02/03 19:28:31;;;;;;;13.00;5.95;;;;;;;-3.53;87.77;99420.59;1730560;82;21016;-74
2022/02/03 20:06:34;;;;;;;13.88;6.17;;;;;;;-3.64;79.14;99422.72;1681141;85;21111;-73
2022/02/03 20:09:03;;;;;;;15.00;5.25;;;;;;;-3.64;79.78;99428.11;1664397;85;21057;-74
2022/02/03 20:11:24;;;;;;;7.12;4.05;;;;;;;-3.62;79.56;99430.05;1727264;83;21005;-72
2022/02/03 20:13:52;;;;;;;10.55;4.85;;;;;;;-3.64;77.81;99430.28;1730141;82;21522;-69
2022/02/03 20:16:21;;;;;;;10.03;4.75;;;;;;;-3.65;77.92;99432.66;1730166;83;21002;-69
2022/02/03 20:18:47;;;;;;;9.85;4.30;;;;;;;-3.68;77.43;99424.53;1681240;85;21070;-72
2022/02/03 20:21:19;;;;;;;13.70;5.50;;;;;;;-3.71;76.58;99424.16;1729990;82;20901;-70
2022/02/03 20:23:47;;;;;;;9.35;5.20;;;;;;;-3.73;75.72;99422.20;1730175;82;20958;-72
2022/02/03 20:26:17;;;;;;;9.60;4.67;;;;;;;-3.77;76.60;99413.76;1729999;82;21041;-71
2022/02/03 20:28:45;;;;;;;8.93;4.08;;;;;;;-3.81;75.77;99407.20;1730359;82;21076;-69
2022/02/03 20:31:11;;;;;;;7.60;4.45;;;;;;;-3.83;75.07;99401.21;1730165;82;20984;-73
2022/02/03 20:33:37;;;;;;;9.65;4.53;;;;;;;-3.87;74.80;99407.57;1730000;82;21454;-72
2022/02/03 20:36:08;;;;;;;12.88;5.37;;;;;;;-3.87;75.75;99405.42;1730118;83;20997;-72
2022/02/03 20:38:37;;;;;;;10.25;4.30;;;;;;;-3.87;75.75;99391.95;1730468;83;21029;-72
2022/02/03 20:41:04;;;;;;;8.20;4.00;;;;;;;-3.86;76.07;99393.59;1730244;83;20925;-73
2022/02/03 20:43:31;;;;;;;9.30;4.62;;;;;;;-3.85;75.82;99392.53;1730426;82;21824;-71
2022/02/03 20:45:59;;;;;;;9.73;4.90;;;;;;;-3.85;76.29;99395.22;1705335;83;20953;-73
2022/02/03 20:48:29;;;;;;;10.65;5.15;;;;;;;-3.84;76.06;99401.72;1730235;82;20929;-69
2022/02/03 20:50:55;;;;;;;11.03;5.33;;;;;;;-3.82;76.48;99399.63;1705965;83;20941;-73
2022/02/03 20:53:21;;;;;;;10.10;4.78;;;;;;;-3.80;76.54;99401.58;1730290;82;20886;-72
2022/02/03 20:55:51;;;;;;;15.00;6.28;;;;;;;-3.76;76.72;99411.89;1730171;82;21053;-70
2022/02/03 20:58:20;;;;;;;11.38;5.25;;;;;;;-3.76;76.33;99411.38;1730103;83;21407;-70
2022/02/03 21:00:53;;;;;;;14.13;5.20;;;;;;;-3.77;76.15;99400.29;1730704;82;20986;-71
2022/02/03 21:03:31;;;;;;;11.03;5.58;;;;;;;-3.75;75.76;99408.97;1729367;83;21045;-70
2022/02/03 21:06:01;;;;;;;11.97;5.78;;;;;;;-3.81;75.11;99403.16;1730054;83;20835;-72
2022/02/03 21:08:32;;;;;;;10.68;5.05;;;;;;;-3.82;75.24;99409.06;1706251;83;21156;-73
2022/02/03 21:10:57;;;;;;;8.85;4.60;;;;;;;-3.83;75.23;99414.67;1730493;82;20989;-72
2022/02/03 21:13:31;;;;;;;9.73;4.00;;;;;;;-3.86;74.18;99407.89;1730282;82;20969;-72
2022/02/03 21:16:01;;;;;;;12.58;5.67;;;;;;;-3.92;74.38;99412.30;1706074;83;20981;-73
2022/02/03 21:18:30;;;;;;;12.13;5.33;;;;;;;-3.94;74.65;99411.70;1730657;83;20981;-68
2022/02/03 21:21:00;;;;;;;10.03;5.22;;;;;;;-3.94;74.89;99405.51;1730506;82;21675;-73
2022/02/03 21:23:26;;;;;;;12.20;4.87;;;;;;;-3.92;74.62;99408.77;1730355;82;21890;-73
2022/02/03 21:25:56;;;;;;;8.08;4.42;;;;;;;-3.95;73.27;99415.96;1730325;82;21486;-72
2022/02/03 21:28:26;;;;;;;17.92;7.05;;;;;;;-3.99;73.47;99406.71;1681979;83;21483;-73
2022/02/03 21:30:55;;;;;;;11.03;4.95;;;;;;;-3.99;74.53;99412.89;1730377;82;21510;-72
2022/02/03 21:33:30;;;;;;;15.68;6.00;;;;;;;-3.92;73.99;99412.30;1730258;83;21427;-71
2022/02/03 21:35:57;;;;;;;;;;;;;;;-3.92;73.74;99418.20;1732637;83;20969;-73
2022/02/03 21:38:24;;;;;;;8.73;4.35;;;;;;;-3.95;73.40;99420.00;1729853;82;20431;-72
2022/02/03 21:40:51;;;;;;;10.60;4.92;;;;;;;-3.99;73.27;99419.63;1730343;83;21462;-73